createdAt,value
2023-04-07T00:02:51.807Z,100539.46
2023-04-07T00:07:57.624Z,100533.09
2023-04-07T00:13:03.185Z,100525.86
2023-04-07T00:18:11.870Z,100526.20
2023-04-07T00:23:17.628Z,100523.29
2023-04-07T00:28:23.098Z,100517.59
2023-04-07T00:33:28.495Z,100518.46
2023-04-07T00:38:33.864Z,100509.84
2023-04-07T00:43:39.768Z,100507.95
2023-04-07T00:48:46.234Z,100508.81
2023-04-07T00:53:51.696Z,100505.70
2023-04-07T00:58:57.221Z,100506.90
2023-04-07T01:04:06.072Z,100508.11
2023-04-07T01:09:18.580Z,100506.90
2023-04-07T01:14:28.951Z,100503.28
2023-04-07T01:19:47.832Z,100500.52
2023-04-07T01:25:18.295Z,100499.29
2023-04-07T01:30:27.440Z,100496.02
2023-04-07T01:35:36.011Z,100494.63
2023-04-07T01:40:43.685Z,100493.07
2023-04-07T01:45:49.573Z,100487.89
2023-04-07T01:50:58.425Z,100486.16
2023-04-07T01:56:04.924Z,100487.55
2023-04-07T02:01:12.070Z,100487.54
2023-04-07T02:06:24.619Z,100485.27
2023-04-07T02:11:32.464Z,100482.33
2023-04-07T02:16:41.840Z,100486.80
2023-04-07T02:21:48.677Z,100485.75
2023-04-07T02:26:56.321Z,100486.07
2023-04-07T02:32:03.693Z,100480.38
2023-04-07T02:37:09.364Z,100481.93
2023-04-07T02:42:14.822Z,100477.78
2023-04-07T02:47:20.543Z,100480.86
2023-04-07T02:52:26.051Z,100479.13
2023-04-07T02:57:32.364Z,100481.52
2023-04-07T03:02:40.037Z,100479.63
2023-04-07T03:07:46.467Z,100483.55
2023-04-07T03:12:53.323Z,100483.55
2023-04-07T03:17:59.514Z,100488.39
2023-04-07T03:23:07.474Z,100488.54
2023-04-07T03:28:13.119Z,100490.41
2023-04-07T03:33:19.003Z,100491.42
2023-04-07T03:38:24.612Z,100492.64
2023-04-07T03:43:32.668Z,100492.63
2023-04-07T03:48:38.270Z,100492.26
2023-04-07T03:53:47.627Z,100491.04
2023-04-07T03:59:14.777Z,100490.01
2023-04-07T04:04:31.861Z,100487.54
2023-04-07T04:09:37.823Z,100492.71
2023-04-07T04:14:44.199Z,100491.52
2023-04-07T04:19:51.125Z,100495.11
2023-04-07T04:25:04.713Z,100503.73
2023-04-07T04:30:11.753Z,100506.49
2023-04-07T04:35:22.566Z,100507.86
2023-04-07T04:40:43.524Z,100507.16
2023-04-07T04:45:50.941Z,100507.64
2023-04-07T04:50:57.240Z,100507.98
2023-04-07T04:56:02.991Z,100515.39
2023-04-07T05:01:23.911Z,100511.39
2023-04-07T05:06:33.514Z,100509.45
2023-04-07T05:11:43.676Z,100509.08
2023-04-07T05:16:49.582Z,100509.88
2023-04-07T05:21:59.094Z,100510.52
2023-04-07T05:27:04.529Z,100510.17
2023-04-07T05:32:10.408Z,100505.86
2023-04-07T05:37:16.092Z,100509.56
2023-04-07T05:42:22.859Z,100511.91
2023-04-07T05:47:28.857Z,100511.86
2023-04-07T05:52:34.423Z,100510.27
2023-04-07T05:57:47.670Z,100511.63
2023-04-07T06:02:55.432Z,100512.41
2023-04-07T06:08:01.066Z,100512.75
2023-04-07T06:13:07.140Z,100510.20
2023-04-07T06:18:12.758Z,100504.39
2023-04-07T06:23:18.380Z,100505.66
2023-04-07T06:28:23.978Z,100502.44
2023-04-07T06:33:29.652Z,100506.17
2023-04-07T06:38:35.391Z,100505.25
2023-04-07T06:43:40.968Z,100503.50
2023-04-07T06:48:47.592Z,100506.17
2023-04-07T06:53:53.136Z,100506.10
2023-04-07T06:58:58.814Z,100505.42
2023-04-07T07:04:08.153Z,100501.49
2023-04-07T07:09:13.661Z,100501.59
2023-04-07T07:14:19.055Z,100495.56
2023-04-07T07:19:24.593Z,100501.09
2023-04-07T07:24:30.033Z,100507.98
2023-04-07T07:29:35.625Z,100507.11
2023-04-07T07:34:41.453Z,100512.70
2023-04-07T07:39:46.933Z,100517.64
2023-04-07T07:44:52.425Z,100520.85
2023-04-07T07:49:58.007Z,100521.41
2023-04-07T07:55:03.719Z,100519.27
2023-04-07T08:00:11.390Z,100524.77
2023-04-07T08:05:19.679Z,100528.80
2023-04-07T08:10:25.683Z,100526.84
2023-04-07T08:15:33.886Z,100526.21
2023-04-07T08:20:40.989Z,100528.48
2023-04-07T08:25:47.104Z,100527.79
2023-04-07T08:30:53.927Z,100528.40
2023-04-07T08:36:00.368Z,100529.19
2023-04-07T08:41:11.713Z,100528.98
2023-04-07T08:46:19.727Z,100520.13
2023-04-07T08:51:30.233Z,100515.75
2023-04-07T08:56:38.130Z,100525.40
2023-04-07T09:01:44.052Z,100519.23
2023-04-07T09:06:49.791Z,100520.70
2023-04-07T09:11:55.523Z,100520.89
2023-04-07T09:17:01.571Z,100520.52
2023-04-07T09:22:08.465Z,100518.41
2023-04-07T09:27:17.740Z,100512.66
2023-04-07T09:32:41.322Z,100508.75
2023-04-07T09:38:00.802Z,100506.32
2023-04-07T09:43:14.907Z,100505.97
2023-04-07T09:48:23.447Z,100507.89
2023-04-07T09:53:43.472Z,100508.84
2023-04-07T09:58:54.419Z,100510.66
2023-04-07T10:04:01.403Z,100511.66
2023-04-07T10:09:08.673Z,100505.35
2023-04-07T10:14:15.451Z,100506.48
2023-04-07T10:19:22.894Z,100515.63
2023-04-07T10:24:47.192Z,100517.52
2023-04-07T10:29:54.410Z,100522.62
2023-04-07T10:35:02.995Z,100523.88
2023-04-07T10:40:29.076Z,100523.14
2023-04-07T10:45:59.961Z,100524.19
2023-04-07T10:51:17.375Z,100524.17
2023-04-07T10:56:24.041Z,100525.84
2023-04-07T11:01:30.163Z,100526.52
2023-04-07T11:06:46.404Z,100530.95
2023-04-07T11:11:54.117Z,100532.20
2023-04-07T11:17:03.720Z,100528.50
2023-04-07T11:22:29.354Z,100533.51
2023-04-07T11:27:38.256Z,100531.66
2023-04-07T11:32:47.200Z,100538.92
2023-04-07T11:37:59.414Z,100542.64
2023-04-07T11:43:15.237Z,100541.41
2023-04-07T11:48:32.338Z,100548.05
2023-04-07T11:53:39.048Z,100546.19
2023-04-07T11:58:50.636Z,100545.48
2023-04-07T12:04:02.170Z,100550.43
2023-04-07T12:09:09.597Z,100553.36
2023-04-07T12:14:15.359Z,100553.39
2023-04-07T12:19:21.036Z,100556.86
2023-04-07T12:24:28.395Z,100560.88
2023-04-07T12:29:35.509Z,100557.67
2023-04-07T12:34:41.338Z,100561.21
2023-04-07T12:39:47.081Z,100560.48
2023-04-07T12:44:53.072Z,100570.95
2023-04-07T12:49:58.712Z,100574.83
2023-04-07T12:55:04.845Z,100576.35
2023-04-07T13:00:12.537Z,100583.45
2023-04-07T13:05:19.066Z,100590.73
2023-04-07T13:10:28.677Z,100595.38
2023-04-07T13:15:36.273Z,100600.55
2023-04-07T13:20:42.500Z,100605.82
2023-04-07T13:25:48.875Z,100608.92
2023-04-07T13:30:55.293Z,100615.98
2023-04-07T13:36:00.925Z,100619.70
2023-04-07T13:41:07.435Z,100625.93
2023-04-07T13:46:27.912Z,100630.55
2023-04-07T13:51:39.874Z,100628.29
2023-04-07T13:56:45.520Z,100630.16
2023-04-07T14:01:51.194Z,100637.81
2023-04-07T14:06:57.901Z,100637.10
2023-04-07T14:12:05.079Z,100633.85
2023-04-07T14:17:11.644Z,100628.30
2023-04-07T14:22:17.406Z,100635.07
2023-04-07T14:27:23.263Z,100638.83
2023-04-07T14:32:33.536Z,100646.34
2023-04-07T14:37:39.739Z,100655.08
2023-04-07T14:42:45.038Z,100654.03
2023-04-07T14:47:50.671Z,100662.55
2023-04-07T14:53:00.174Z,100667.48
2023-04-07T14:58:08.555Z,100677.36
2023-04-07T15:03:14.350Z,100678.10
2023-04-07T15:08:20.427Z,100683.23
2023-04-07T15:13:25.968Z,100684.40
2023-04-07T15:18:32.961Z,100694.08
2023-04-07T15:23:41.925Z,100700.55
2023-04-07T15:28:48.695Z,100702.17
2023-04-07T15:33:54.332Z,100707.32
2023-04-07T15:39:02.288Z,100711.05
2023-04-07T15:44:08.074Z,100710.73
2023-04-07T15:49:14.252Z,100713.09
2023-04-07T15:54:23.046Z,100715.69
2023-04-07T15:59:31.066Z,100724.25
2023-04-07T16:04:37.141Z,100732.19
2023-04-07T16:09:42.500Z,100738.08
2023-04-07T16:14:48.018Z,100737.58
2023-04-07T16:19:53.701Z,100739.98
2023-04-07T16:24:59.491Z,100745.15
2023-04-07T16:30:05.798Z,100750.85
2023-04-07T16:35:12.438Z,100763.72
2023-04-07T16:40:18.278Z,100775.73
2023-04-07T16:45:24.059Z,100780.52
2023-04-07T16:50:29.729Z,100789.84
2023-04-07T16:55:37.144Z,100797.98
2023-04-07T17:00:42.670Z,100806.19
2023-04-07T17:05:49.432Z,100809.95
2023-04-07T17:10:54.953Z,100823.03
2023-04-07T17:16:00.776Z,100827.37
2023-04-07T17:21:06.461Z,100838.74
2023-04-07T17:26:12.317Z,100840.59
2023-04-07T17:31:18.302Z,100851.80
2023-04-07T17:36:23.872Z,100856.61
2023-04-07T17:41:31.405Z,100865.54
2023-04-07T17:46:37.258Z,100874.80
2023-04-07T17:51:42.827Z,100881.92
2023-04-07T17:56:49.260Z,100890.40
2023-04-07T18:01:55.429Z,100906.73
2023-04-07T18:07:02.218Z,100916.11
2023-04-07T18:12:08.648Z,100929.15
2023-04-07T18:17:14.853Z,100934.70
2023-04-07T18:22:21.292Z,100939.91
2023-04-07T18:27:28.465Z,100952.59
2023-04-07T18:32:34.876Z,100954.70
2023-04-07T18:37:44.102Z,100963.02
2023-04-07T18:42:51.802Z,100966.15
2023-04-07T18:47:58.621Z,100973.27
2023-04-07T18:53:04.778Z,100977.63
2023-04-07T18:58:11.533Z,100985.10
2023-04-07T19:03:18.256Z,100990.99
2023-04-07T19:08:28.816Z,100996.55
2023-04-07T19:13:36.435Z,101000.39
2023-04-07T19:18:42.527Z,101009.13
2023-04-07T19:23:48.604Z,101016.80
2023-04-07T19:28:56.016Z,101022.19
2023-04-07T19:34:02.187Z,101025.34
2023-04-07T19:39:07.656Z,101026.27
2023-04-07T19:44:14.261Z,101038.25
2023-04-07T19:49:20.401Z,101038.80
2023-04-07T19:54:26.311Z,101045.89
2023-04-07T19:59:32.181Z,101053.16
2023-04-07T20:04:37.844Z,101063.88
2023-04-07T20:09:43.256Z,101073.92
2023-04-07T20:14:49.060Z,101078.41
2023-04-07T20:19:56.176Z,101088.95
2023-04-07T20:25:05.553Z,101101.02
2023-04-07T20:30:11.888Z,101104.98
2023-04-07T20:35:17.812Z,101108.98
2023-04-07T20:40:23.501Z,101118.65
2023-04-07T20:45:29.132Z,101121.56
2023-04-07T20:50:34.632Z,101123.75
2023-04-07T20:55:41.321Z,101123.34
2023-04-07T21:00:47.166Z,101130.69
2023-04-07T21:05:54.483Z,101134.11
2023-04-07T21:10:59.894Z,101140.30
2023-04-07T21:16:05.965Z,101140.13
2023-04-07T21:21:13.903Z,101142.71
2023-04-07T21:26:21.416Z,101145.16
2023-04-07T21:31:28.136Z,101155.36
2023-04-07T21:36:35.869Z,101161.58
2023-04-07T21:41:46.254Z,101161.91
2023-04-07T21:46:55.292Z,101168.97
2023-04-07T21:52:01.172Z,101172.39
2023-04-07T21:57:11.977Z,101179.83
2023-04-07T22:02:22.102Z,101181.20
2023-04-07T22:07:36.459Z,101183.25
2023-04-07T22:12:46.519Z,101181.66
2023-04-07T22:17:52.118Z,101182.00
2023-04-07T22:22:57.921Z,101185.98
2023-04-07T22:28:05.786Z,101187.89
2023-04-07T22:33:12.029Z,101190.66
2023-04-07T22:38:20.914Z,101192.74
2023-04-07T22:43:30.047Z,101195.11
2023-04-07T22:48:35.622Z,101194.73
2023-04-07T22:53:42.963Z,101199.58
2023-04-07T22:58:49.417Z,101198.32
2023-04-07T23:03:55.602Z,101201.73
2023-04-07T23:09:03.988Z,101204.48
2023-04-07T23:14:13.058Z,101205.70
2023-04-07T23:19:24.345Z,101203.80
2023-04-07T23:24:29.681Z,101204.13
2023-04-07T23:29:36.259Z,101203.92
2023-04-07T23:34:44.641Z,101207.01
2023-04-07T23:39:50.310Z,101199.77
2023-04-07T23:44:55.917Z,101204.08
2023-04-07T23:50:05.119Z,101209.92
2023-04-07T23:55:11.372Z,101208.88
